Time;durP1;ratioP1;P1;durP2;ratioP2;P2;SDS_P1;SDS_P2;PMS_P1;PMS_P2;Temp;Humidity;BMP_temperature;BMP_pressure;BME280_temperature;BME280_humidity;BME280_pressure;Samples;Min_cycle;Max_cycle;Signal;HPM_P1;HPM_P2
2021/07/18 00:01:00;;;;;;;21.27;15.48;;;;;;;23.16;100.00;100214.34;2705617;88;21325;-64
2021/07/18 00:05:04;;;;;;;20.10;14.80;;;;;;;23.14;100.00;100214.25;2705600;88;21018;-63
2021/07/18 00:09:06;;;;;;;17.42;14.58;;;;;;;23.09;100.00;100217.59;2705546;86;21046;-64
2021/07/18 00:13:08;;;;;;;21.10;15.65;;;;;;;23.03;100.00;100210.31;2705263;86;21042;-63
2021/07/18 00:17:14;;;;;;;27.15;17.95;;;;;;;22.98;100.00;100212.28;2705467;88;21078;-63
2021/07/18 00:21:15;;;;;;;23.10;16.27;;;;;;;22.95;100.00;100211.35;2705605;88;21053;-63
2021/07/18 00:25:17;;;;;;;15.72;13.43;;;;;;;22.92;100.00;100207.70;2705206;88;21511;-63
2021/07/18 00:29:19;;;;;;;23.73;14.28;;;;;;;22.92;100.00;100205.81;2705430;88;21555;-63
2021/07/18 00:33:21;;;;;;;22.10;12.95;;;;;;;22.91;100.00;100204.69;2705507;88;21074;-63
2021/07/18 00:37:23;;;;;;;20.30;14.70;;;;;;;22.88;100.00;100200.50;2705387;88;21022;-64
2021/07/18 00:41:25;;;;;;;16.35;14.30;;;;;;;22.87;100.00;100204.77;2705045;86;21113;-63
2021/07/18 00:45:26;;;;;;;17.67;14.33;;;;;;;22.82;100.00;100201.35;2705454;87;21037;-64
2021/07/18 00:49:29;;;;;;;18.48;14.80;;;;;;;22.77;100.00;100199.77;2705562;88;21053;-65
2021/07/18 00:53:31;;;;;;;18.27;14.50;;;;;;;22.74;100.00;100198.83;2705315;88;21066;-64
2021/07/18 00:57:34;;;;;;;22.07;14.18;;;;;;;22.69;100.00;100200.80;2705767;88;21053;-64
2021/07/18 01:01:36;;;;;;;17.87;13.50;;;;;;;22.68;100.00;100190.50;2705405;88;21013;-64
2021/07/18 01:05:38;;;;;;;18.50;14.38;;;;;;;22.67;100.00;100194.76;2705297;88;21066;-65
2021/07/18 01:09:40;;;;;;;21.50;14.38;;;;;;;22.66;100.00;100189.87;2705907;88;21058;-65
2021/07/18 01:13:43;;;;;;;18.60;14.70;;;;;;;22.68;100.00;100191.00;2705849;88;21026;-65
2021/07/18 01:17:44;;;;;;;18.90;13.90;;;;;;;22.66;100.00;100198.52;2706119;86;21070;-65
2021/07/18 01:21:57;;;;;;;16.80;13.62;;;;;;;22.65;100.00;100199.05;2706048;88;21658;-66
2021/07/18 01:25:58;;;;;;;28.17;14.65;;;;;;;22.62;100.00;100200.83;2706360;88;21049;-65
2021/07/18 01:30:01;;;;;;;16.57;13.65;;;;;;;22.59;100.00;100207.17;2706243;88;21120;-66
2021/07/18 01:34:03;;;;;;;19.90;14.83;;;;;;;22.55;100.00;100204.03;2706003;88;21006;-66
2021/07/18 01:38:09;;;;;;;15.50;13.35;;;;;;;22.46;100.00;100208.79;2706308;88;21034;-66
2021/07/18 01:42:11;;;;;;;15.95;12.47;;;;;;;22.43;100.00;100211.09;2711017;86;21092;-66
2021/07/18 01:46:13;;;;;;;20.92;14.18;;;;;;;22.37;100.00;100209.50;2714675;87;21025;-67
2021/07/18 01:50:16;;;;;;;17.98;14.53;;;;;;;22.35;100.00;100226.48;2714625;86;21057;-67
2021/07/18 01:54:17;;;;;;;18.10;13.53;;;;;;;22.30;100.00;100230.34;2714523;87;21033;-67
2021/07/18 01:58:25;;;;;;;17.80;13.98;;;;;;;22.29;100.00;100237.30;2714801;87;21009;-67
2021/07/18 02:02:27;;;;;;;19.40;15.05;;;;;;;22.27;100.00;100238.88;2714003;85;21052;-68
2021/07/18 02:06:33;;;;;;;17.10;13.53;;;;;;;22.24;100.00;100231.17;2714722;87;21032;-68
2021/07/18 02:10:35;;;;;;;20.70;13.72;;;;;;;22.24;100.00;100236.59;2714601;87;21084;-67
2021/07/18 02:14:40;;;;;;;18.15;14.10;;;;;;;22.27;100.00;100233.47;2714574;87;21060;-68
2021/07/18 02:18:42;;;;;;;;;;;;;;;22.28;100.00;100227.00;2716957;87;21104;-68
2021/07/18 02:22:51;;;;;;;18.12;14.03;;;;;;;22.31;100.00;100225.77;2714896;87;20106;-69
2021/07/18 02:26:53;;;;;;;16.37;12.73;;;;;;;22.29;100.00;100222.41;2715302;87;20993;-70
2021/07/18 02:30:56;;;;;;;19.05;14.85;;;;;;;22.27;100.00;100218.56;2715026;87;21088;-69
2021/07/18 02:34:58;;;;;;;19.05;13.78;;;;;;;22.25;100.00;100224.71;2714946;87;21048;-72
2021/07/18 02:39:00;;;;;;;22.07;15.58;;;;;;;22.24;100.00;100221.16;2714751;87;21036;-70
2021/07/18 02:43:03;;;;;;;26.95;14.65;;;;;;;22.22;100.00;100225.12;2708668;87;21123;-72
2021/07/18 02:47:05;;;;;;;22.25;14.35;;;;;;;22.24;100.00;100228.46;2706193;86;21038;-70
2021/07/18 02:51:07;;;;;;;18.48;14.60;;;;;;;22.24;100.00;100229.28;2706283;86;21041;-72
2021/07/18 02:55:13;;;;;;;19.50;13.72;;;;;;;22.22;100.00;100234.07;2706297;88;21097;-70
2021/07/18 02:59:15;;;;;;;21.60;12.98;;;;;;;22.21;100.00;100231.58;2706305;88;21113;-71
2021/07/18 03:03:17;;;;;;;18.70;12.80;;;;;;;22.19;100.00;100244.47;2706422;88;21093;-71
2021/07/18 03:07:20;;;;;;;30.62;15.08;;;;;;;22.19;100.00;100240.41;2705860;88;21093;-71
2021/07/18 03:11:22;;;;;;;17.52;12.73;;;;;;;22.18;100.00;100246.86;2706520;88;21089;-68
2021/07/18 03:15:24;;;;;;;22.52;14.35;;;;;;;22.18;100.00;100250.42;2706527;88;21026;-70
2021/07/18 03:19:26;;;;;;;21.02;14.65;;;;;;;22.18;100.00;100254.99;2706762;88;21582;-70
2021/07/18 03:23:28;;;;;;;21.90;13.43;;;;;;;22.14;100.00;100248.31;2706611;88;21005;-68
2021/07/18 03:27:29;;;;;;;17.92;13.15;;;;;;;22.10;100.00;100258.20;2706042;88;21054;-69
2021/07/18 03:31:32;;;;;;;21.57;15.30;;;;;;;22.06;100.00;100254.24;2706186;88;21026;-68
2021/07/18 03:35:33;;;;;;;20.60;13.40;;;;;;;22.03;100.00;100257.36;2706161;86;21616;-67
2021/07/18 03:39:36;;;;;;;18.80;15.30;;;;;;;21.99;100.00;100266.90;2706258;88;21038;-68
2021/07/18 03:43:38;;;;;;;28.57;15.95;;;;;;;21.97;100.00;100271.18;2712194;87;21109;-67
2021/07/18 03:47:41;;;;;;;18.98;14.45;;;;;;;21.95;100.00;100272.41;2714387;87;21036;-67
2021/07/18 03:51:44;;;;;;;25.12;15.28;;;;;;;21.96;100.00;100276.78;2714401;87;21029;-67
2021/07/18 03:55:50;;;;;;;21.27;14.30;;;;;;;21.95;100.00;100279.17;2713823;87;21072;-67
2021/07/18 03:59:51;;;;;;;21.17;15.43;;;;;;;21.90;100.00;100281.66;2714618;87;21069;-66
2021/07/18 04:03:53;;;;;;;20.92;15.83;;;;;;;21.86;100.00;100281.75;2714483;87;21079;-66
2021/07/18 04:07:55;;;;;;;20.02;13.15;;;;;;;21.82;100.00;100285.37;2714336;87;21036;-66
2021/07/18 04:11:56;;;;;;;20.35;14.65;;;;;;;21.81;100.00;100291.32;2714590;87;21009;-64
2021/07/18 04:15:58;;;;;;;16.87;13.15;;;;;;;21.77;100.00;100287.84;2714370;87;21072;-65
2021/07/18 04:20:00;;;;;;;21.93;15.05;;;;;;;21.76;100.00;100288.35;2714343;87;21116;-65
2021/07/18 04:24:04;;;;;;;20.77;14.98;;;;;;;21.77;100.00;100285.14;2714544;87;21009;-65
2021/07/18 04:28:06;;;;;;;22.10;14.43;;;;;;;21.78;100.00;100295.75;2714238;87;21064;-64
2021/07/18 04:32:08;;;;;;;27.30;15.68;;;;;;;21.79;100.00;100296.06;2714511;87;21064;-65
2021/07/18 04:36:11;;;;;;;15.32;12.45;;;;;;;21.80;100.00;100300.45;2714205;87;21081;-64
2021/07/18 04:40:14;;;;;;;18.35;13.58;;;;;;;21.84;100.00;100302.25;2714542;87;21039;-65
2021/07/18 04:44:16;;;;;;;20.57;13.03;;;;;;;21.83;100.00;100300.58;2713686;87;21069;-65
2021/07/18 04:48:17;;;;;;;17.90;13.80;;;;;;;21.77;100.00;100315.73;2714238;87;21048;-64
2021/07/18 04:52:19;;;;;;;19.87;13.30;;;;;;;21.76;100.00;100316.77;2714231;87;21570;-65
2021/07/18 04:56:22;;;;;;;23.20;13.10;;;;;;;21.75;99.78;100326.47;2713857;87;21060;-64
2021/07/18 05:00:24;;;;;;;24.65;13.80;;;;;;;21.70;99.44;100327.05;2714326;87;21013;-64
2021/07/18 05:04:27;;;;;;;21.68;12.13;;;;;;;21.68;100.00;100339.42;2714105;87;21008;-65
2021/07/18 05:08:29;;;;;;;18.02;11.18;;;;;;;21.72;99.18;100340.41;2714106;87;21025;-64
2021/07/18 05:12:30;;;;;;;15.10;12.63;;;;;;;21.75;98.77;100338.12;2714442;87;21393;-64
2021/07/18 05:16:32;;;;;;;17.92;11.73;;;;;;;21.86;98.47;100335.37;2714057;87;21067;-63
2021/07/18 05:20:34;;;;;;;11.63;8.98;;;;;;;21.94;96.45;100339.79;2714256;87;20993;-64
2021/07/18 05:24:35;;;;;;;15.60;10.90;;;;;;;21.99;96.51;100328.36;2714491;87;21048;-64
2021/07/18 05:28:37;;;;;;;20.90;9.50;;;;;;;22.04;94.98;100326.73;2714223;87;21040;-64
2021/07/18 05:32:39;;;;;;;9.05;8.20;;;;;;;22.19;93.65;100340.12;2714524;87;21036;-64
2021/07/18 05:36:41;;;;;;;10.25;8.20;;;;;;;22.46;92.41;100335.34;2714632;87;21140;-65
2021/07/18 05:40:44;;;;;;;12.45;9.50;;;;;;;22.61;92.11;100329.27;2714891;87;21471;-65
2021/07/18 05:44:45;;;;;;;15.88;9.30;;;;;;;23.21;93.97;100327.67;2715033;86;21060;-65
2021/07/18 05:48:49;;;;;;;12.25;9.38;;;;;;;23.69;91.62;100330.69;2715227;87;21131;-66
2021/07/18 05:52:51;;;;;;;12.43;8.28;;;;;;;24.10;88.85;100332.27;2715809;87;20982;-65
2021/07/18 05:56:56;;;;;;;15.38;8.45;;;;;;;24.23;86.98;100340.89;2715855;87;21040;-67
2021/07/18 06:00:58;;;;;;;9.88;6.95;;;;;;;24.22;87.10;100341.94;2703083;87;23780;-66
2021/07/18 06:05:00;;;;;;;8.55;6.87;;;;;;;24.08;85.59;100341.16;2715742;87;21092;-66
2021/07/18 06:09:04;;;;;;;10.65;7.30;;;;;;;24.09;86.70;100340.66;2716464;87;21016;-66
2021/07/18 06:13:05;;;;;;;10.15;7.42;;;;;;;24.13;86.19;100337.81;2716623;87;20981;-67
2021/07/18 06:17:08;;;;;;;9.63;7.22;;;;;;;24.23;85.64;100333.28;2716596;87;21029;-67
2021/07/18 06:21:10;;;;;;;11.18;8.20;;;;;;;24.28;85.22;100336.72;2717056;87;21081;-67
2021/07/18 06:25:14;;;;;;;9.48;6.42;;;;;;;24.29;84.91;100336.48;2717218;87;21001;-68
2021/07/18 06:29:17;;;;;;;7.55;6.10;;;;;;;24.65;84.72;100329.61;2716695;87;21060;-68
2021/07/18 06:33:19;;;;;;;12.65;6.60;;;;;;;24.97;80.94;100332.07;2717293;87;21044;-69
2021/07/18 06:37:27;;;;;;;13.75;6.22;;;;;;;25.16;81.10;100322.92;2716598;87;21092;-68
2021/07/18 06:41:29;;;;;;;10.82;7.20;;;;;;;25.50;80.22;100325.37;2716334;87;21044;-69
2021/07/18 06:45:31;;;;;;;11.18;6.78;;;;;;;25.61;78.96;100327.88;2708104;88;21031;-67
2021/07/18 06:49:32;;;;;;;9.95;7.55;;;;;;;25.36;77.30;100335.52;2707973;88;21050;-68
2021/07/18 06:53:34;;;;;;;8.95;6.92;;;;;;;25.15;78.60;100338.91;2707791;86;21042;-67
2021/07/18 06:57:36;;;;;;;12.18;7.70;;;;;;;24.94;77.62;100332.79;2706986;88;21094;-66
2021/07/18 07:01:38;;;;;;;10.38;7.55;;;;;;;25.23;78.26;100346.82;2706740;88;21038;-66
2021/07/18 07:05:40;;;;;;;12.53;7.35;;;;;;;25.56;76.83;100349.52;2706686;86;21746;-66
2021/07/18 07:09:42;;;;;;;9.30;7.47;;;;;;;25.56;75.30;100353.60;2706142;86;21041;-67
2021/07/18 07:13:44;;;;;;;12.13;7.67;;;;;;;25.66;76.58;100353.39;2705669;88;21096;-68
2021/07/18 07:17:46;;;;;;;10.53;6.78;;;;;;;25.89;75.67;100353.77;2705664;88;21073;-66
2021/07/18 07:21:48;;;;;;;10.53;8.13;;;;;;;25.92;73.99;100357.41;2706246;88;21041;-65
2021/07/18 07:25:50;;;;;;;8.43;6.78;;;;;;;25.87;74.89;100358.62;2706598;88;21563;-66
2021/07/18 07:29:51;;;;;;;8.93;7.80;;;;;;;25.91;73.64;100353.02;2707004;88;21046;-67
2021/07/18 07:33:53;;;;;;;7.40;5.55;;;;;;;26.05;74.22;100352.36;2707025;87;21056;-65
2021/07/18 07:37:55;;;;;;;10.88;6.58;;;;;;;26.21;72.54;100356.39;2707519;88;21006;-65
2021/07/18 07:41:58;;;;;;;11.53;6.85;;;;;;;26.43;73.69;100357.27;2706960;86;21066;-65
2021/07/18 07:45:59;;;;;;;8.48;6.33;;;;;;;26.72;70.64;100349.31;2699809;88;21113;-63
2021/07/18 07:50:01;;;;;;;9.58;6.00;;;;;;;26.58;70.40;100344.58;2699833;88;21030;-66
2021/07/18 07:54:04;;;;;;;9.05;5.97;;;;;;;26.54;71.41;100346.95;2700752;88;20987;-63
2021/07/18 07:58:07;;;;;;;7.67;6.17;;;;;;;26.67;70.95;100350.03;2700732;88;21077;-65
2021/07/18 08:02:09;;;;;;;6.97;5.60;;;;;;;26.96;70.21;100343.98;2723251;86;21030;-65
2021/07/18 08:06:11;;;;;;;12.33;6.30;;;;;;;27.25;68.88;100340.03;2745387;86;21527;-64
2021/07/18 08:10:18;;;;;;;9.93;5.87;;;;;;;27.36;69.49;100341.95;2733360;85;21044;-65
2021/07/18 08:14:19;;;;;;;5.40;4.53;;;;;;;27.27;68.37;100346.09;2718046;86;21135;-64
2021/07/18 08:18:21;;;;;;;5.95;4.95;;;;;;;27.27;67.99;100345.56;2732148;86;21119;-65
2021/07/18 08:22:23;;;;;;;8.98;5.83;;;;;;;27.14;68.28;100346.63;2730553;85;21036;-65
2021/07/18 08:26:27;;;;;;;9.85;6.67;;;;;;;27.31;67.89;100333.62;2717016;87;21051;-63
2021/07/18 08:30:30;;;;;;;12.13;6.60;;;;;;;27.20;67.97;100337.48;2732307;87;21087;-64
2021/07/18 08:34:31;;;;;;;7.15;5.15;;;;;;;27.38;67.55;100337.90;2732041;86;21071;-64
2021/07/18 08:38:33;;;;;;;9.90;5.00;;;;;;;27.64;65.62;100341.80;2701925;86;21038;-63
2021/07/18 08:42:36;;;;;;;9.85;6.72;;;;;;;27.91;64.78;100340.76;2704259;87;21040;-65
2021/07/18 08:46:39;;;;;;;11.43;5.70;;;;;;;28.19;65.94;100347.38;2721234;87;21802;-63
2021/07/18 08:50:41;;;;;;;9.03;5.70;;;;;;;27.93;64.24;100344.63;2720600;87;21016;-66
2021/07/18 08:54:46;;;;;;;11.15;5.90;;;;;;;27.72;64.60;100341.45;2720503;86;21036;-68
2021/07/18 08:58:49;;;;;;;9.03;5.58;;;;;;;27.93;64.46;100340.53;2720594;87;21079;-63
2021/07/18 09:02:52;;;;;;;11.38;5.40;;;;;;;27.96;63.15;100334.58;2720260;87;21068;-65
2021/07/18 09:06:54;;;;;;;9.93;5.62;;;;;;;27.91;62.65;100331.75;2720666;87;21068;-66
2021/07/18 09:10:56;;;;;;;9.08;5.10;;;;;;;27.91;63.62;100324.91;2720673;87;21072;-64
2021/07/18 09:15:00;;;;;;;8.58;5.92;;;;;;;28.26;63.10;100328.09;2720443;86;21016;-66
2021/07/18 09:19:27;;;;;;;6.78;4.97;;;;;;;28.52;62.50;100328.61;2720388;86;21183;-68
2021/07/18 09:23:30;;;;;;;8.33;4.58;;;;;;;28.34;60.30;100338.67;2720562;87;21072;-64
2021/07/18 09:27:34;;;;;;;5.95;5.05;;;;;;;28.25;60.23;100329.17;2721229;86;21028;-66
2021/07/18 09:31:41;;;;;;;8.58;4.30;;;;;;;28.16;60.23;100332.83;2721857;87;21024;-64
2021/07/18 09:35:41;;;;;;;5.12;4.15;;;;;;;28.22;60.34;100327.77;2720413;87;21052;-63
2021/07/18 09:39:50;;;;;;;7.58;5.08;;;;;;;28.31;61.17;100322.75;2721842;87;21060;-63
2021/07/18 09:43:59;;;;;;;7.20;4.70;;;;;;;28.50;59.27;100323.92;2714935;85;21085;-65
2021/07/18 09:48:07;;;;;;;7.72;5.05;;;;;;;28.65;59.78;100327.47;2706069;88;21058;-65
2021/07/18 09:52:26;;;;;;;8.40;5.78;;;;;;;28.82;58.14;100322.05;2705834;86;21055;-64
2021/07/18 09:56:33;;;;;;;5.35;4.50;;;;;;;28.94;57.26;100331.55;2704968;88;21046;-61
2021/07/18 10:00:41;;;;;;;5.05;4.37;;;;;;;28.88;57.57;100318.31;2704793;86;21019;-64
2021/07/18 10:04:48;;;;;;;7.00;4.22;;;;;;;28.85;58.17;100316.08;2704964;86;21075;-64
2021/07/18 10:08:54;;;;;;;7.78;4.20;;;;;;;28.74;57.88;100321.06;2704848;88;21027;-64
2021/07/18 10:12:56;;;;;;;7.40;4.00;;;;;;;28.74;57.74;100310.12;2704959;88;21054;-64
2021/07/18 10:16:58;;;;;;;5.95;4.03;;;;;;;28.84;59.65;100310.86;2704109;88;21125;-66
2021/07/18 10:21:02;;;;;;;8.88;4.45;;;;;;;28.82;58.58;100298.78;2704573;88;21011;-63
2021/07/18 10:25:15;;;;;;;8.33;4.83;;;;;;;28.74;58.87;100295.06;2704620;88;21054;-67
2021/07/18 10:29:17;;;;;;;5.17;3.80;;;;;;;28.60;57.30;100300.03;2704954;88;21023;-62
2021/07/18 10:33:21;;;;;;;6.35;3.85;;;;;;;28.65;57.49;100296.82;2704812;86;21603;-65
2021/07/18 10:37:24;;;;;;;8.90;4.62;;;;;;;28.67;57.29;100295.74;2704311;87;21027;-64
2021/07/18 10:41:45;;;;;;;6.80;4.45;;;;;;;28.44;58.98;100292.05;2704282;88;21054;-66
2021/07/18 10:45:50;;;;;;;3.92;3.50;;;;;;;28.40;60.52;100296.36;2704674;87;21031;-64
2021/07/18 10:49:59;;;;;;;;;;;;;;;28.46;59.71;100283.06;2741443;86;21042;-65
2021/07/18 10:54:21;;;;;;;10.88;5.03;;;;;;;28.57;57.35;100280.82;2750321;86;20214;-65
2021/07/18 10:58:46;;;;;;;8.73;5.15;;;;;;;28.52;58.32;100276.63;2704962;88;21057;-64
2021/07/18 11:03:09;;;;;;;5.73;5.03;;;;;;;28.65;57.86;100276.30;2705114;88;21011;-66
2021/07/18 11:07:28;;;;;;;13.25;7.70;;;;;;;28.71;57.15;100277.22;2704871;87;21035;-65
2021/07/18 11:11:57;;;;;;;9.73;6.08;;;;;;;28.75;56.96;100285.78;2704866;88;21050;-65
2021/07/18 11:16:08;;;;;;;7.78;5.55;;;;;;;28.92;55.97;100274.33;2705252;87;21003;-66
2021/07/18 11:20:10;;;;;;;9.10;7.60;;;;;;;28.94;55.06;100280.91;2705179;88;21106;-66
2021/07/18 11:24:13;;;;;;;12.10;8.25;;;;;;;28.97;56.86;100274.93;2704845;88;21022;-65
2021/07/18 11:28:49;;;;;;;14.10;9.73;;;;;;;29.04;56.38;100276.14;2705018;88;21027;-65
2021/07/18 11:32:45;;;;;;;14.95;11.30;;;;;;;29.08;56.25;100278.66;2706203;86;21091;-67
2021/07/18 11:36:51;;;;;;;12.40;9.73;;;;;;;29.04;56.51;100271.51;2704934;88;21083;-65
2021/07/18 11:40:53;;;;;;;9.35;8.25;;;;;;;29.00;55.43;100272.25;2705326;88;21079;-64
2021/07/18 11:45:00;;;;;;;19.55;10.32;;;;;;;29.11;55.36;100265.86;2717155;87;21043;-64
2021/07/18 11:49:05;;;;;;;13.70;8.85;;;;;;;29.06;56.33;100253.44;2729072;87;21006;-63
2021/07/18 11:53:07;;;;;;;10.72;8.20;;;;;;;29.15;54.61;100263.44;2729424;87;21104;-65
2021/07/18 11:57:18;;;;;;;10.18;6.55;;;;;;;29.24;55.36;100256.98;2728827;87;21047;-66
2021/07/18 12:01:22;;;;;;;10.78;6.45;;;;;;;29.08;55.53;100251.28;2728933;87;21059;-65
2021/07/18 12:05:25;;;;;;;16.75;6.90;;;;;;;29.10;56.25;100258.73;2728723;87;21063;-64
2021/07/18 12:09:30;;;;;;;7.60;5.30;;;;;;;29.14;53.76;100267.25;2729319;87;21000;-64
2021/07/18 12:13:35;;;;;;;;;;;;;;;29.19;54.41;100255.03;2731563;87;21008;-64
2021/07/18 12:17:37;;;;;;;6.37;5.13;;;;;;;29.38;54.83;100239.12;2751448;86;20391;-64
2021/07/18 12:21:41;;;;;;;7.37;4.97;;;;;;;29.55;54.87;100236.91;2729395;87;21020;-64
2021/07/18 12:25:45;;;;;;;8.18;5.05;;;;;;;29.73;55.35;100235.23;2729105;87;21056;-65
2021/07/18 12:29:53;;;;;;;12.85;4.60;;;;;;;29.77;53.08;100229.52;2729105;87;21003;-65
2021/07/18 12:33:56;;;;;;;11.73;5.10;;;;;;;29.84;55.47;100216.98;2729408;87;21035;-65
2021/07/18 12:38:06;;;;;;;8.70;5.03;;;;;;;29.77;53.51;100217.19;2729541;87;21004;-65
2021/07/18 12:42:13;;;;;;;6.55;4.50;;;;;;;29.77;53.53;100222.66;2729392;87;21015;-64
2021/07/18 12:46:22;;;;;;;8.60;4.83;;;;;;;29.82;55.21;100215.58;2728701;87;21103;-65
2021/07/18 12:50:32;;;;;;;6.87;4.50;;;;;;;29.57;55.78;100174.47;2729318;87;21048;-63
2021/07/18 12:54:34;;;;;;;7.17;4.25;;;;;;;29.81;56.42;100213.92;2729667;87;21115;-65
2021/07/18 12:58:42;;;;;;;6.50;4.30;;;;;;;29.82;54.72;100191.75;2729663;87;21035;-62
2021/07/18 13:02:44;;;;;;;7.37;4.35;;;;;;;29.97;55.46;100211.64;2729209;87;20996;-62
2021/07/18 13:06:52;;;;;;;5.50;3.75;;;;;;;30.21;54.54;100205.88;2729368;87;21024;-67
2021/07/18 13:10:54;;;;;;;6.15;4.22;;;;;;;30.21;54.54;100205.88;2729528;86;21008;-64
2021/07/18 13:15:19;;;;;;;5.28;3.22;;;;;;;30.25;55.54;100207.01;2729292;87;21027;-64
2021/07/18 13:19:21;;;;;;;7.40;4.30;;;;;;;30.08;55.00;100201.64;2729334;87;21952;-64
2021/07/18 13:23:28;;;;;;;4.75;2.72;;;;;;;30.01;54.65;100204.55;2729646;87;21019;-62
2021/07/18 13:27:30;;;;;;;8.48;3.75;;;;;;;30.15;54.98;100197.33;2729355;87;21051;-64
2021/07/18 13:31:31;;;;;;;16.25;3.70;;;;;;;30.15;54.21;100195.95;2729500;87;20992;-64
2021/07/18 13:35:44;;;;;;;4.25;3.20;;;;;;;30.21;54.32;100195.75;2729311;87;21020;-65
2021/07/18 13:39:46;;;;;;;5.90;3.35;;;;;;;30.28;53.17;100182.36;2728919;87;20984;-64
2021/07/18 13:43:49;;;;;;;7.67;3.33;;;;;;;30.40;54.11;100184.92;2729091;87;21118;-65
2021/07/18 13:47:50;;;;;;;8.80;3.62;;;;;;;30.35;54.49;100176.94;2742989;86;21063;-64
2021/07/18 13:51:55;;;;;;;7.40;3.25;;;;;;;30.40;54.37;100173.95;2664159;87;21018;-63
2021/07/18 13:56:03;;;;;;;10.08;2.62;;;;;;;30.28;54.62;100170.02;2613062;89;21136;-63
2021/07/18 14:00:06;;;;;;;6.58;3.65;;;;;;;30.21;53.21;100174.34;2672424;88;21020;-63
2021/07/18 14:04:09;;;;;;;8.70;3.05;;;;;;;30.28;53.58;100170.02;2672377;88;21097;-62
2021/07/18 14:08:11;;;;;;;4.50;2.70;;;;;;;30.15;53.05;100174.83;2672379;88;21020;-62
2021/07/18 14:12:13;;;;;;;4.30;2.75;;;;;;;30.18;53.81;100174.86;2672259;89;21028;-63
2021/07/18 14:16:17;;;;;;;6.33;1.98;;;;;;;30.27;54.23;100171.10;2672087;88;21052;-63
2021/07/18 14:20:23;;;;;;;3.70;1.50;;;;;;;30.29;54.46;100168.92;2672458;89;21068;-63
2021/07/18 14:24:26;;;;;;;2.12;1.50;;;;;;;30.44;54.56;100170.96;2671680;89;21028;-62
2021/07/18 14:28:28;;;;;;;3.67;1.90;;;;;;;30.39;54.50;100166.81;2672531;89;21004;-63
2021/07/18 14:32:30;;;;;;;5.60;2.02;;;;;;;30.35;54.88;100159.64;2671944;89;21001;-63
2021/07/18 14:36:32;;;;;;;3.27;1.45;;;;;;;30.39;54.34;100162.17;2672092;88;21357;-63
2021/07/18 14:40:36;;;;;;;7.00;1.72;;;;;;;30.34;54.80;100162.94;2672311;88;21039;-63
2021/07/18 14:44:38;;;;;;;3.58;1.42;;;;;;;30.31;53.71;100157.14;2673885;88;21080;-63
2021/07/18 14:48:44;;;;;;;8.55;1.52;;;;;;;30.33;54.44;100157.17;2677222;88;21071;-63
2021/07/18 14:52:46;;;;;;;2.62;1.47;;;;;;;30.47;54.06;100153.44;2678027;89;20996;-62
2021/07/18 14:56:50;;;;;;;4.05;1.20;;;;;;;30.43;55.35;100152.31;2677979;89;21055;-63
2021/07/18 15:00:52;;;;;;;3.40;1.90;;;;;;;30.55;53.67;100156.25;2678238;89;21013;-63
2021/07/18 15:04:55;;;;;;;4.00;1.80;;;;;;;30.51;53.23;100146.89;2678643;87;21550;-63
2021/07/18 15:08:57;;;;;;;3.47;1.80;;;;;;;30.54;54.21;100146.36;2678549;89;21072;-62
2021/07/18 15:12:59;;;;;;;4.53;1.52;;;;;;;30.47;53.37;100148.52;2678472;89;21044;-61
2021/07/18 15:17:02;;;;;;;4.05;2.00;;;;;;;30.46;53.48;100153.69;2678576;89;21091;-62
2021/07/18 15:21:04;;;;;;;9.30;1.70;;;;;;;30.51;52.81;100145.52;2678208;89;21072;-62
2021/07/18 15:25:10;;;;;;;5.95;1.55;;;;;;;30.57;53.22;100141.71;2678072;89;21059;-63
2021/07/18 15:29:14;;;;;;;2.40;1.85;;;;;;;30.54;53.55;100138.13;2678184;89;21437;-62
2021/07/18 15:33:16;;;;;;;1.67;1.40;;;;;;;30.44;53.85;100139.41;2678291;88;21004;-62
2021/07/18 15:37:19;;;;;;;5.10;1.30;;;;;;;30.38;53.35;100147.33;2678406;89;21049;-64
2021/07/18 15:41:20;;;;;;;3.58;1.50;;;;;;;30.07;53.09;100147.89;2678337;89;21032;-62
2021/07/18 15:45:22;;;;;;;3.05;1.77;;;;;;;29.95;52.98;100139.80;2679589;87;21047;-63
2021/07/18 15:49:25;;;;;;;8.25;2.33;;;;;;;29.87;54.36;100140.24;2681618;88;21044;-64
2021/07/18 15:53:27;;;;;;;2.92;1.45;;;;;;;29.92;54.05;100140.31;2682476;88;21076;-63
2021/07/18 15:57:32;;;;;;;6.53;1.77;;;;;;;29.92;53.27;100137.58;2682510;88;21425;-63
2021/07/18 16:01:36;;;;;;;4.65;2.05;;;;;;;29.94;53.25;100140.88;2682341;88;21052;-62
2021/07/18 16:05:40;;;;;;;2.65;1.70;;;;;;;29.89;53.29;100146.32;2682559;88;21044;-64
2021/07/18 16:09:42;;;;;;;4.65;1.72;;;;;;;29.83;53.23;100148.17;2681917;88;21004;-61
2021/07/18 16:13:44;;;;;;;1.22;0.90;;;;;;;29.83;53.69;100145.44;2681658;88;21028;-63
2021/07/18 16:17:46;;;;;;;7.22;2.12;;;;;;;29.79;53.37;100146.48;2681126;88;21079;-63
2021/07/18 16:21:48;;;;;;;2.95;1.75;;;;;;;29.67;54.78;100132.09;2681124;88;21063;-63
2021/07/18 16:25:52;;;;;;;3.42;1.98;;;;;;;29.60;53.93;100152.87;2681407;88;21024;-62
2021/07/18 16:29:53;;;;;;;2.25;1.67;;;;;;;29.54;54.07;100153.06;2681502;88;21498;-63
2021/07/18 16:33:56;;;;;;;2.52;1.98;;;;;;;29.54;54.07;100153.06;2681416;88;21470;-62
2021/07/18 16:37:58;;;;;;;2.92;1.52;;;;;;;29.43;54.72;100151.55;2681762;88;21285;-62
2021/07/18 16:42:01;;;;;;;1.47;0.95;;;;;;;29.43;54.72;100151.55;2681683;88;21031;-64
2021/07/18 16:46:03;;;;;;;5.15;1.42;;;;;;;29.33;54.40;100156.89;2686454;88;21059;-63
2021/07/18 16:50:07;;;;;;;4.12;1.90;;;;;;;29.01;55.62;100146.59;2628728;90;21078;-63
2021/07/18 16:54:11;;;;;;;1.90;1.27;;;;;;;28.84;56.05;100152.94;2671726;89;20994;-63
2021/07/18 16:58:12;;;;;;;2.33;1.20;;;;;;;28.73;56.66;100159.31;2693564;88;21059;-65
2021/07/18 17:02:14;;;;;;;3.33;1.80;;;;;;;28.62;55.78;100156.41;2629309;90;21118;-62
2021/07/18 17:06:16;;;;;;;2.95;1.67;;;;;;;28.52;56.05;100156.27;2671311;89;21070;-63
2021/07/18 17:10:19;;;;;;;5.17;1.85;;;;;;;28.49;56.58;100162.20;2692842;88;21079;-63
2021/07/18 17:14:21;;;;;;;4.70;1.95;;;;;;;28.41;56.75;100164.00;2629509;90;21041;-65
2021/07/18 17:18:23;;;;;;;6.53;2.40;;;;;;;28.32;57.61;100164.42;2671196;89;21592;-64
2021/07/18 17:22:26;;;;;;;2.67;1.67;;;;;;;28.25;57.84;100163.73;2693223;88;21043;-64
2021/07/18 17:26:28;;;;;;;2.70;1.32;;;;;;;28.16;57.25;100163.30;2629524;90;21064;-64
2021/07/18 17:30:30;;;;;;;5.47;1.60;;;;;;;28.06;57.67;100159.00;2676678;89;21038;-63
2021/07/18 17:34:35;;;;;;;3.05;1.32;;;;;;;27.92;57.71;100166.69;2675480;87;21025;-65
2021/07/18 17:38:40;;;;;;;3.58;1.30;;;;;;;27.74;58.28;100164.44;2677671;89;21082;-64
2021/07/18 17:42:42;;;;;;;;;;;;;;;27.63;59.18;100174.34;2707389;88;21060;-63
2021/07/18 17:46:44;;;;;;;1.82;1.42;;;;;;;27.56;59.45;100172.81;2695089;87;20098;-64
2021/07/18 17:50:47;;;;;;;3.95;1.52;;;;;;;27.49;59.46;100177.01;2685697;88;21044;-62
2021/07/18 17:54:49;;;;;;;5.42;1.90;;;;;;;27.40;59.52;100173.82;2663311;89;21049;-63
2021/07/18 17:58:51;;;;;;;2.08;1.40;;;;;;;27.31;59.85;100171.16;2641730;89;21088;-64
2021/07/18 18:02:53;;;;;;;2.37;1.57;;;;;;;27.19;60.34;100173.38;2746252;86;21078;-63
2021/07/18 18:06:56;;;;;;;2.35;1.52;;;;;;;27.08;60.76;100179.16;2726740;87;21529;-64
2021/07/18 18:11:02;;;;;;;3.98;1.45;;;;;;;26.99;61.26;100181.12;2726665;87;21016;-64
2021/07/18 18:15:07;;;;;;;3.52;1.12;;;;;;;26.84;61.58;100185.11;2726237;87;21024;-64
2021/07/18 18:19:09;;;;;;;6.20;1.90;;;;;;;26.73;62.07;100179.13;2726597;87;21036;-64
2021/07/18 18:23:11;;;;;;;9.13;2.22;;;;;;;26.60;62.68;100177.44;2726172;87;21073;-64
2021/07/18 18:27:13;;;;;;;2.27;1.22;;;;;;;26.49;62.95;100181.28;2726483;87;21631;-64
2021/07/18 18:31:15;;;;;;;1.92;1.20;;;;;;;26.40;63.43;100185.95;2726198;87;21075;-63
2021/07/18 18:35:18;;;;;;;2.80;1.55;;;;;;;26.25;63.83;100189.94;2725589;87;21499;-66
2021/07/18 18:39:21;;;;;;;6.60;1.45;;;;;;;26.13;63.98;100193.11;2725138;87;21127;-65